sensor_id;sensor_type;location;lat;lon;timestamp;temperature;humidity
19088;DHT22;9676;50.916;13.352;2023-05-08T00:03:11;10.60;56.70
19088;DHT22;9676;50.916;13.352;2023-05-08T00:06:03;10.50;56.60
19088;DHT22;9676;50.916;13.352;2023-05-08T00:08:53;10.60;56.60
19088;DHT22;9676;50.916;13.352;2023-05-08T00:11:44;10.50;56.40
19088;DHT22;9676;50.916;13.352;2023-05-08T00:14:33;10.50;56.50
19088;DHT22;9676;50.916;13.352;2023-05-08T00:17:23;10.40;56.50
19088;DHT22;9676;50.916;13.352;2023-05-08T00:20:12;10.40;56.60
19088;DHT22;9676;50.916;13.352;2023-05-08T00:23:02;10.30;56.50
19088;DHT22;9676;50.916;13.352;2023-05-08T00:25:52;10.40;56.60
19088;DHT22;9676;50.916;13.352;2023-05-08T00:28:42;10.30;56.60
19088;DHT22;9676;50.916;13.352;2023-05-08T00:31:32;10.30;56.70
19088;DHT22;9676;50.916;13.352;2023-05-08T00:34:21;10.20;56.60
19088;DHT22;9676;50.916;13.352;2023-05-08T00:37:10;10.20;56.50
19088;DHT22;9676;50.916;13.352;2023-05-08T00:40:00;10.20;56.60
19088;DHT22;9676;50.916;13.352;2023-05-08T00:42:49;10.20;56.60
19088;DHT22;9676;50.916;13.352;2023-05-08T00:45:40;10.20;56.70
19088;DHT22;9676;50.916;13.352;2023-05-08T00:48:33;10.10;56.80
19088;DHT22;9676;50.916;13.352;2023-05-08T00:51:22;10.10;56.80
19088;DHT22;9676;50.916;13.352;2023-05-08T00:54:12;10.10;56.80
19088;DHT22;9676;50.916;13.352;2023-05-08T00:57:04;10.10;56.80
19088;DHT22;9676;50.916;13.352;2023-05-08T00:59:54;10.10;56.90
19088;DHT22;9676;50.916;13.352;2023-05-08T01:02:45;10.10;57.00
19088;DHT22;9676;50.916;13.352;2023-05-08T01:05:35;10.00;56.90
19088;DHT22;9676;50.916;13.352;2023-05-08T01:08:25;10.00;56.90
19088;DHT22;9676;50.916;13.352;2023-05-08T01:11:25;10.00;56.90
19088;DHT22;9676;50.916;13.352;2023-05-08T01:14:20;10.00;57.00
19088;DHT22;9676;50.916;13.352;2023-05-08T01:17:17;10.00;57.00
19088;DHT22;9676;50.916;13.352;2023-05-08T01:20:21;9.90;58.00
19088;DHT22;9676;50.916;13.352;2023-05-08T01:23:57;10.00;57.10
19088;DHT22;9676;50.916;13.352;2023-05-08T01:27:37;9.90;58.00
19088;DHT22;9676;50.916;13.352;2023-05-08T01:34:05;9.90;57.90
19088;DHT22;9676;50.916;13.352;2023-05-08T01:36:59;9.80;57.80
19088;DHT22;9676;50.916;13.352;2023-05-08T01:39:56;9.80;57.70
19088;DHT22;9676;50.916;13.352;2023-05-08T01:42:57;9.70;57.80
19088;DHT22;9676;50.916;13.352;2023-05-08T01:45:54;9.80;57.80
19088;DHT22;9676;50.916;13.352;2023-05-08T01:48:49;9.70;57.60
19088;DHT22;9676;50.916;13.352;2023-05-08T01:51:44;9.70;57.60
19088;DHT22;9676;50.916;13.352;2023-05-08T01:54:41;9.60;57.60
19088;DHT22;9676;50.916;13.352;2023-05-08T01:57:39;9.60;57.50
19088;DHT22;9676;50.916;13.352;2023-05-08T02:00:32;9.60;57.50
19088;DHT22;9676;50.916;13.352;2023-05-08T02:03:22;9.50;57.50
19088;DHT22;9676;50.916;13.352;2023-05-08T02:06:15;9.50;57.60
19088;DHT22;9676;50.916;13.352;2023-05-08T02:09:11;9.50;57.60
19088;DHT22;9676;50.916;13.352;2023-05-08T02:12:01;9.50;57.70
19088;DHT22;9676;50.916;13.352;2023-05-08T02:14:52;9.40;57.70
19088;DHT22;9676;50.916;13.352;2023-05-08T02:17:43;9.40;57.60
19088;DHT22;9676;50.916;13.352;2023-05-08T02:20:35;9.40;57.60
19088;DHT22;9676;50.916;13.352;2023-05-08T02:23:26;9.40;57.60
19088;DHT22;9676;50.916;13.352;2023-05-08T02:26:18;9.30;57.70
19088;DHT22;9676;50.916;13.352;2023-05-08T02:29:08;9.30;58.00
19088;DHT22;9676;50.916;13.352;2023-05-08T02:32:00;9.30;58.00
19088;DHT22;9676;50.916;13.352;2023-05-08T02:34:51;9.20;58.20
19088;DHT22;9676;50.916;13.352;2023-05-08T02:37:52;9.20;58.20
19088;DHT22;9676;50.916;13.352;2023-05-08T02:40:46;9.20;58.20
19088;DHT22;9676;50.916;13.352;2023-05-08T02:43:39;9.20;58.80
19088;DHT22;9676;50.916;13.352;2023-05-08T02:46:38;9.20;58.00
19088;DHT22;9676;50.916;13.352;2023-05-08T02:49:40;9.20;58.20
19088;DHT22;9676;50.916;13.352;2023-05-08T02:52:37;9.10;58.10
19088;DHT22;9676;50.916;13.352;2023-05-08T02:55:34;9.10;57.90
19088;DHT22;9676;50.916;13.352;2023-05-08T02:58:39;9.10;57.90
19088;DHT22;9676;50.916;13.352;2023-05-08T03:01:44;9.10;57.90
19088;DHT22;9676;50.916;13.352;2023-05-08T03:04:44;9.10;57.90
19088;DHT22;9676;50.916;13.352;2023-05-08T03:07:39;9.00;57.80
19088;DHT22;9676;50.916;13.352;2023-05-08T03:10:33;9.00;57.70
19088;DHT22;9676;50.916;13.352;2023-05-08T03:13:24;9.00;57.90
19088;DHT22;9676;50.916;13.352;2023-05-08T03:16:22;8.90;57.80
19088;DHT22;9676;50.916;13.352;2023-05-08T03:19:17;8.90;57.80
19088;DHT22;9676;50.916;13.352;2023-05-08T03:22:10;8.90;57.80
19088;DHT22;9676;50.916;13.352;2023-05-08T03:25:02;8.90;57.70
19088;DHT22;9676;50.916;13.352;2023-05-08T03:27:56;8.80;57.70
19088;DHT22;9676;50.916;13.352;2023-05-08T03:30:47;8.80;58.40
19088;DHT22;9676;50.916;13.352;2023-05-08T03:33:41;8.80;57.80
19088;DHT22;9676;50.916;13.352;2023-05-08T03:36:31;8.80;58.00
19088;DHT22;9676;50.916;13.352;2023-05-08T03:39:21;8.80;57.90
19088;DHT22;9676;50.916;13.352;2023-05-08T03:42:11;8.80;58.00
19088;DHT22;9676;50.916;13.352;2023-05-08T03:45:10;8.80;58.00
19088;DHT22;9676;50.916;13.352;2023-05-08T03:48:00;8.80;58.10
19088;DHT22;9676;50.916;13.352;2023-05-08T03:50:52;8.80;58.10
19088;DHT22;9676;50.916;13.352;2023-05-08T03:53:42;8.80;58.00
19088;DHT22;9676;50.916;13.352;2023-05-08T03:56:32;8.80;58.10
19088;DHT22;9676;50.916;13.352;2023-05-08T03:59:28;8.80;58.20
19088;DHT22;9676;50.916;13.352;2023-05-08T04:02:28;8.80;58.40
19088;DHT22;9676;50.916;13.352;2023-05-08T04:05:27;8.80;58.50
19088;DHT22;9676;50.916;13.352;2023-05-08T04:08:27;8.90;58.60
19088;DHT22;9676;50.916;13.352;2023-05-08T04:11:24;8.90;58.60
19088;DHT22;9676;50.916;13.352;2023-05-08T04:14:18;9.00;58.80
19088;DHT22;9676;50.916;13.352;2023-05-08T04:17:11;9.00;59.30
19088;DHT22;9676;50.916;13.352;2023-05-08T04:20:04;9.10;60.10
19088;DHT22;9676;50.916;13.352;2023-05-08T04:22:59;9.40;61.30
19088;DHT22;9676;50.916;13.352;2023-05-08T04:25:53;9.60;62.50
19088;DHT22;9676;50.916;13.352;2023-05-08T04:28:44;9.90;63.40
19088;DHT22;9676;50.916;13.352;2023-05-08T04:31:34;10.30;63.80
19088;DHT22;9676;50.916;13.352;2023-05-08T04:34:25;10.70;65.10
19088;DHT22;9676;50.916;13.352;2023-05-08T04:37:25;11.10;66.10
19088;DHT22;9676;50.916;13.352;2023-05-08T04:40:17;11.70;66.30
19088;DHT22;9676;50.916;13.352;2023-05-08T04:43:08;12.30;67.50
19088;DHT22;9676;50.916;13.352;2023-05-08T04:45:58;12.80;67.60
19088;DHT22;9676;50.916;13.352;2023-05-08T04:48:47;13.40;67.80
19088;DHT22;9676;50.916;13.352;2023-05-08T04:51:37;14.00;67.30
19088;DHT22;9676;50.916;13.352;2023-05-08T04:54:27;14.50;66.40
19088;DHT22;9676;50.916;13.352;2023-05-08T04:57:16;15.00;65.80
19088;DHT22;9676;50.916;13.352;2023-05-08T05:00:08;15.50;65.10
19088;DHT22;9676;50.916;13.352;2023-05-08T05:03:01;16.00;64.40
19088;DHT22;9676;50.916;13.352;2023-05-08T05:05:56;16.40;64.40
19088;DHT22;9676;50.916;13.352;2023-05-08T05:08:46;16.80;63.00
19088;DHT22;9676;50.916;13.352;2023-05-08T05:11:36;17.20;62.90
19088;DHT22;9676;50.916;13.352;2023-05-08T05:14:25;17.60;62.40
19088;DHT22;9676;50.916;13.352;2023-05-08T05:17:16;18.00;62.20
19088;DHT22;9676;50.916;13.352;2023-05-08T05:20:07;18.30;61.60
19088;DHT22;9676;50.916;13.352;2023-05-08T05:22:57;18.60;61.20
19088;DHT22;9676;50.916;13.352;2023-05-08T05:25:47;18.90;60.60
19088;DHT22;9676;50.916;13.352;2023-05-08T05:28:36;19.10;60.10
19088;DHT22;9676;50.916;13.352;2023-05-08T05:31:27;19.30;59.60
19088;DHT22;9676;50.916;13.352;2023-05-08T05:34:18;19.40;59.50
19088;DHT22;9676;50.916;13.352;2023-05-08T05:37:08;19.60;59.30
19088;DHT22;9676;50.916;13.352;2023-05-08T05:39:58;19.80;59.20
19088;DHT22;9676;50.916;13.352;2023-05-08T05:42:48;20.00;58.10
19088;DHT22;9676;50.916;13.352;2023-05-08T05:45:38;20.10;58.00
19088;DHT22;9676;50.916;13.352;2023-05-08T05:48:28;20.30;58.40
19088;DHT22;9676;50.916;13.352;2023-05-08T05:51:19;20.50;59.00
19088;DHT22;9676;50.916;13.352;2023-05-08T05:54:08;20.90;59.20
19088;DHT22;9676;50.916;13.352;2023-05-08T05:56:58;21.20;59.50
19088;DHT22;9676;50.916;13.352;2023-05-08T05:59:48;21.60;59.00
19088;DHT22;9676;50.916;13.352;2023-05-08T06:02:38;22.00;58.60
19088;DHT22;9676;50.916;13.352;2023-05-08T06:05:30;22.30;58.00
19088;DHT22;9676;50.916;13.352;2023-05-08T06:08:21;22.60;57.80
19088;DHT22;9676;50.916;13.352;2023-05-08T06:11:10;22.80;56.80
19088;DHT22;9676;50.916;13.352;2023-05-08T06:14:00;23.00;55.90
19088;DHT22;9676;50.916;13.352;2023-05-08T06:16:49;23.10;56.20
19088;DHT22;9676;50.916;13.352;2023-05-08T06:19:39;23.30;56.40
19088;DHT22;9676;50.916;13.352;2023-05-08T06:22:29;23.60;56.70
19088;DHT22;9676;50.916;13.352;2023-05-08T06:25:20;23.90;56.60
19088;DHT22;9676;50.916;13.352;2023-05-08T06:28:09;24.20;56.70
19088;DHT22;9676;50.916;13.352;2023-05-08T06:30:58;24.60;56.90
19088;DHT22;9676;50.916;13.352;2023-05-08T06:33:48;24.90;57.00
19088;DHT22;9676;50.916;13.352;2023-05-08T06:36:38;25.40;56.60
19088;DHT22;9676;50.916;13.352;2023-05-08T06:39:27;25.80;56.10
19088;DHT22;9676;50.916;13.352;2023-05-08T06:42:18;26.10;55.60
19088;DHT22;9676;50.916;13.352;2023-05-08T06:45:08;26.30;54.70
19088;DHT22;9676;50.916;13.352;2023-05-08T06:47:58;26.60;54.60
19088;DHT22;9676;50.916;13.352;2023-05-08T06:50:50;26.80;53.70
19088;DHT22;9676;50.916;13.352;2023-05-08T06:53:39;27.00;52.80
19088;DHT22;9676;50.916;13.352;2023-05-08T06:56:29;27.20;52.70
19088;DHT22;9676;50.916;13.352;2023-05-08T06:59:20;27.40;52.40
19088;DHT22;9676;50.916;13.352;2023-05-08T07:02:10;27.60;52.20
19088;DHT22;9676;50.916;13.352;2023-05-08T07:05:00;27.70;52.20
19088;DHT22;9676;50.916;13.352;2023-05-08T07:07:50;27.90;51.80
19088;DHT22;9676;50.916;13.352;2023-05-08T07:10:40;28.10;51.60
19088;DHT22;9676;50.916;13.352;2023-05-08T07:13:30;28.30;51.70
19088;DHT22;9676;50.916;13.352;2023-05-08T07:16:21;28.60;50.60
19088;DHT22;9676;50.916;13.352;2023-05-08T07:19:10;28.80;50.30
19088;DHT22;9676;50.916;13.352;2023-05-08T07:22:00;29.10;50.70
19088;DHT22;9676;50.916;13.352;2023-05-08T07:24:49;29.40;50.50
19088;DHT22;9676;50.916;13.352;2023-05-08T07:27:38;29.70;49.80
19088;DHT22;9676;50.916;13.352;2023-05-08T07:30:28;29.90;49.50
19088;DHT22;9676;50.916;13.352;2023-05-08T07:33:19;30.20;49.70
19088;DHT22;9676;50.916;13.352;2023-05-08T07:36:08;30.50;49.60
19088;DHT22;9676;50.916;13.352;2023-05-08T07:38:57;30.60;48.20
19088;DHT22;9676;50.916;13.352;2023-05-08T07:41:47;30.70;47.40
19088;DHT22;9676;50.916;13.352;2023-05-08T07:44:36;30.80;46.80
19088;DHT22;9676;50.916;13.352;2023-05-08T07:47:47;30.80;44.30
19088;DHT22;9676;50.916;13.352;2023-05-08T07:50:39;30.60;42.80
19088;DHT22;9676;50.916;13.352;2023-05-08T07:53:28;30.40;43.60
19088;DHT22;9676;50.916;13.352;2023-05-08T07:56:18;30.30;44.30
19088;DHT22;9676;50.916;13.352;2023-05-08T07:59:08;30.30;44.50
19088;DHT22;9676;50.916;13.352;2023-05-08T08:01:57;30.20;44.70
19088;DHT22;9676;50.916;13.352;2023-05-08T08:04:47;30.30;45.10
19088;DHT22;9676;50.916;13.352;2023-05-08T08:07:38;30.40;45.10
19088;DHT22;9676;50.916;13.352;2023-05-08T08:10:27;30.50;44.90
19088;DHT22;9676;50.916;13.352;2023-05-08T08:13:18;30.60;45.10
19088;DHT22;9676;50.916;13.352;2023-05-08T08:16:07;30.90;44.80
19088;DHT22;9676;50.916;13.352;2023-05-08T08:18:57;31.10;44.50
19088;DHT22;9676;50.916;13.352;2023-05-08T08:21:46;31.30;44.30
19088;DHT22;9676;50.916;13.352;2023-05-08T08:24:37;31.50;44.20
19088;DHT22;9676;50.916;13.352;2023-05-08T08:27:26;31.60;43.40
19088;DHT22;9676;50.916;13.352;2023-05-08T08:30:16;31.70;43.40
19088;DHT22;9676;50.916;13.352;2023-05-08T08:33:05;31.80;43.10
19088;DHT22;9676;50.916;13.352;2023-05-08T08:35:55;31.90;43.00
19088;DHT22;9676;50.916;13.352;2023-05-08T08:38:44;32.10;42.90
19088;DHT22;9676;50.916;13.352;2023-05-08T08:41:37;32.20;42.60
19088;DHT22;9676;50.916;13.352;2023-05-08T08:44:27;32.40;42.20
19088;DHT22;9676;50.916;13.352;2023-05-08T08:47:18;32.50;42.60
19088;DHT22;9676;50.916;13.352;2023-05-08T08:50:12;32.60;40.90
19088;DHT22;9676;50.916;13.352;2023-05-08T08:53:07;32.60;40.70
19088;DHT22;9676;50.916;13.352;2023-05-08T08:56:00;32.50;40.00
19088;DHT22;9676;50.916;13.352;2023-05-08T08:58:55;32.30;40.10
19088;DHT22;9676;50.916;13.352;2023-05-08T09:01:47;32.20;39.80
19088;DHT22;9676;50.916;13.352;2023-05-08T09:04:41;32.00;39.90
19088;DHT22;9676;50.916;13.352;2023-05-08T09:07:31;32.00;39.20
19088;DHT22;9676;50.916;13.352;2023-05-08T09:10:22;31.70;38.50
19088;DHT22;9676;50.916;13.352;2023-05-08T09:13:12;31.60;38.40
19088;DHT22;9676;50.916;13.352;2023-05-08T09:16:05;31.40;38.90
19088;DHT22;9676;50.916;13.352;2023-05-08T09:18:55;31.40;38.70
19088;DHT22;9676;50.916;13.352;2023-05-08T09:21:44;31.40;38.00
19088;DHT22;9676;50.916;13.352;2023-05-08T09:24:53;31.50;38.80
19088;DHT22;9676;50.916;13.352;2023-05-08T09:27:44;31.60;37.30
19088;DHT22;9676;50.916;13.352;2023-05-08T09:30:47;31.70;37.90
19088;DHT22;9676;50.916;13.352;2023-05-08T09:33:43;31.80;36.10
19088;DHT22;9676;50.916;13.352;2023-05-08T09:36:33;31.80;36.30
19088;DHT22;9676;50.916;13.352;2023-05-08T09:39:23;31.70;35.50
19088;DHT22;9676;50.916;13.352;2023-05-08T09:42:13;31.70;35.90
19088;DHT22;9676;50.916;13.352;2023-05-08T09:45:04;31.60;35.60
19088;DHT22;9676;50.916;13.352;2023-05-08T09:47:54;31.50;34.00
19088;DHT22;9676;50.916;13.352;2023-05-08T09:50:45;31.30;34.30
19088;DHT22;9676;50.916;13.352;2023-05-08T09:53:34;31.20;34.10
19088;DHT22;9676;50.916;13.352;2023-05-08T09:56:34;31.10;34.60
19088;DHT22;9676;50.916;13.352;2023-05-08T09:59:25;31.20;34.30
19088;DHT22;9676;50.916;13.352;2023-05-08T10:02:18;31.10;33.60
19088;DHT22;9676;50.916;13.352;2023-05-08T10:05:22;31.00;33.40
19088;DHT22;9676;50.916;13.352;2023-05-08T10:08:19;31.00;32.50
19088;DHT22;9676;50.916;13.352;2023-05-08T10:11:13;30.90;31.60
19088;DHT22;9676;50.916;13.352;2023-05-08T10:14:03;30.80;31.30
19088;DHT22;9676;50.916;13.352;2023-05-08T10:16:53;30.60;31.70
19088;DHT22;9676;50.916;13.352;2023-05-08T10:19:45;30.40;30.80
19088;DHT22;9676;50.916;13.352;2023-05-08T10:22:37;30.20;30.20
19088;DHT22;9676;50.916;13.352;2023-05-08T10:25:32;30.10;31.10
19088;DHT22;9676;50.916;13.352;2023-05-08T10:28:28;30.10;30.10
19088;DHT22;9676;50.916;13.352;2023-05-08T10:31:21;30.10;29.80
19088;DHT22;9676;50.916;13.352;2023-05-08T10:34:18;29.90;30.00
19088;DHT22;9676;50.916;13.352;2023-05-08T10:37:08;29.80;30.20
19088;DHT22;9676;50.916;13.352;2023-05-08T10:39:58;29.70;30.10
19088;DHT22;9676;50.916;13.352;2023-05-08T10:42:50;29.60;30.70
19088;DHT22;9676;50.916;13.352;2023-05-08T10:45:40;29.60;30.50
19088;DHT22;9676;50.916;13.352;2023-05-08T10:48:38;29.50;30.20
19088;DHT22;9676;50.916;13.352;2023-05-08T10:51:39;29.40;29.70
19088;DHT22;9676;50.916;13.352;2023-05-08T10:54:37;29.30;30.30
19088;DHT22;9676;50.916;13.352;2023-05-08T10:57:39;29.20;30.20
19088;DHT22;9676;50.916;13.352;2023-05-08T11:00:33;29.10;30.10
19088;DHT22;9676;50.916;13.352;2023-05-08T11:04:01;29.00;29.80
19088;DHT22;9676;50.916;13.352;2023-05-08T11:07:08;28.80;30.00
19088;DHT22;9676;50.916;13.352;2023-05-08T11:10:06;28.60;30.00
19088;DHT22;9676;50.916;13.352;2023-05-08T11:13:02;28.50;30.10
19088;DHT22;9676;50.916;13.352;2023-05-08T11:15:53;28.20;30.10
19088;DHT22;9676;50.916;13.352;2023-05-08T11:19:14;28.00;29.30
19088;DHT22;9676;50.916;13.352;2023-05-08T11:22:21;27.60;29.10
19088;DHT22;9676;50.916;13.352;2023-05-08T11:25:15;27.10;28.70
19088;DHT22;9676;50.916;13.352;2023-05-08T11:28:08;26.60;28.70
19088;DHT22;9676;50.916;13.352;2023-05-08T11:31:03;26.30;28.40
19088;DHT22;9676;50.916;13.352;2023-05-08T11:33:53;25.80;27.90
19088;DHT22;9676;50.916;13.352;2023-05-08T11:36:59;25.40;27.60
19088;DHT22;9676;50.916;13.352;2023-05-08T11:39:49;25.00;27.50
19088;DHT22;9676;50.916;13.352;2023-05-08T11:42:39;24.60;27.60
19088;DHT22;9676;50.916;13.352;2023-05-08T11:45:29;24.30;28.20
19088;DHT22;9676;50.916;13.352;2023-05-08T11:48:21;24.00;28.10
19088;DHT22;9676;50.916;13.352;2023-05-08T11:51:11;23.90;28.10
19088;DHT22;9676;50.916;13.352;2023-05-08T11:54:01;23.70;28.30
19088;DHT22;9676;50.916;13.352;2023-05-08T11:56:52;23.50;27.80
19088;DHT22;9676;50.916;13.352;2023-05-08T11:59:43;23.20;27.80
19088;DHT22;9676;50.916;13.352;2023-05-08T12:02:37;23.00;28.30
19088;DHT22;9676;50.916;13.352;2023-05-08T12:05:28;22.90;28.50
19088;DHT22;9676;50.916;13.352;2023-05-08T12:08:17;22.80;28.60
19088;DHT22;9676;50.916;13.352;2023-05-08T12:11:07;22.70;28.80
19088;DHT22;9676;50.916;13.352;2023-05-08T12:13:57;22.70;28.30
19088;DHT22;9676;50.916;13.352;2023-05-08T12:16:46;22.60;28.40
19088;DHT22;9676;50.916;13.352;2023-05-08T12:19:36;22.50;28.60
19088;DHT22;9676;50.916;13.352;2023-05-08T12:22:26;22.40;28.60
19088;DHT22;9676;50.916;13.352;2023-05-08T12:25:17;22.40;28.40
19088;DHT22;9676;50.916;13.352;2023-05-08T12:28:06;22.30;28.60
19088;DHT22;9676;50.916;13.352;2023-05-08T12:30:56;22.20;28.50
19088;DHT22;9676;50.916;13.352;2023-05-08T12:33:46;22.20;28.60
19088;DHT22;9676;50.916;13.352;2023-05-08T12:36:36;22.10;28.80
19088;DHT22;9676;50.916;13.352;2023-05-08T12:39:27;22.10;28.90
19088;DHT22;9676;50.916;13.352;2023-05-08T12:42:16;22.10;29.00
19088;DHT22;9676;50.916;13.352;2023-05-08T12:45:07;22.10;29.10
19088;DHT22;9676;50.916;13.352;2023-05-08T12:48:00;22.00;29.10
19088;DHT22;9676;50.916;13.352;2023-05-08T12:50:51;22.00;29.20
19088;DHT22;9676;50.916;13.352;2023-05-08T12:53:41;22.10;29.40
19088;DHT22;9676;50.916;13.352;2023-05-08T12:56:31;22.00;29.40
19088;DHT22;9676;50.916;13.352;2023-05-08T12:59:27;22.10;29.50
19088;DHT22;9676;50.916;13.352;2023-05-08T13:02:18;22.00;29.20
19088;DHT22;9676;50.916;13.352;2023-05-08T13:05:10;22.00;29.30
19088;DHT22;9676;50.916;13.352;2023-05-08T13:08:00;22.00;29.40
19088;DHT22;9676;50.916;13.352;2023-05-08T13:10:51;21.90;29.50
19088;DHT22;9676;50.916;13.352;2023-05-08T13:13:43;21.90;29.50
19088;DHT22;9676;50.916;13.352;2023-05-08T13:16:41;21.90;29.70
19088;DHT22;9676;50.916;13.352;2023-05-08T13:19:31;21.80;29.50
19088;DHT22;9676;50.916;13.352;2023-05-08T13:22:20;21.80;29.70
19088;DHT22;9676;50.916;13.352;2023-05-08T13:25:13;21.80;29.70
19088;DHT22;9676;50.916;13.352;2023-05-08T13:28:03;21.70;29.60
19088;DHT22;9676;50.916;13.352;2023-05-08T13:30:55;21.70;29.80
19088;DHT22;9676;50.916;13.352;2023-05-08T13:33:44;21.70;29.80
19088;DHT22;9676;50.916;13.352;2023-05-08T13:36:34;21.60;29.60
19088;DHT22;9676;50.916;13.352;2023-05-08T13:39:23;21.70;29.80
19088;DHT22;9676;50.916;13.352;2023-05-08T13:42:13;21.60;29.90
19088;DHT22;9676;50.916;13.352;2023-05-08T13:45:02;21.60;29.90
19088;DHT22;9676;50.916;13.352;2023-05-08T13:47:54;21.50;29.90
19088;DHT22;9676;50.916;13.352;2023-05-08T13:50:43;21.50;29.90
19088;DHT22;9676;50.916;13.352;2023-05-08T13:53:32;21.50;30.00
19088;DHT22;9676;50.916;13.352;2023-05-08T13:56:22;21.50;30.00
19088;DHT22;9676;50.916;13.352;2023-05-08T13:59:11;21.40;30.00
19088;DHT22;9676;50.916;13.352;2023-05-08T14:02:00;21.40;30.10
19088;DHT22;9676;50.916;13.352;2023-05-08T14:04:51;21.40;30.20
19088;DHT22;9676;50.916;13.352;2023-05-08T14:07:40;21.40;30.20
19088;DHT22;9676;50.916;13.352;2023-05-08T14:10:30;21.40;30.20
19088;DHT22;9676;50.916;13.352;2023-05-08T14:13:19;21.40;30.10
19088;DHT22;9676;50.916;13.352;2023-05-08T14:16:09;21.40;30.10
19088;DHT22;9676;50.916;13.352;2023-05-08T14:19:01;21.40;30.00
19088;DHT22;9676;50.916;13.352;2023-05-08T14:21:52;21.30;29.90
19088;DHT22;9676;50.916;13.352;2023-05-08T14:24:41;21.30;30.00
19088;DHT22;9676;50.916;13.352;2023-05-08T14:27:31;21.20;29.80
19088;DHT22;9676;50.916;13.352;2023-05-08T14:30:20;21.10;29.70
19088;DHT22;9676;50.916;13.352;2023-05-08T14:33:10;21.10;29.70
19088;DHT22;9676;50.916;13.352;2023-05-08T14:35:59;21.00;29.60
19088;DHT22;9676;50.916;13.352;2023-05-08T14:38:50;21.00;29.70
19088;DHT22;9676;50.916;13.352;2023-05-08T14:41:39;20.90;29.50
19088;DHT22;9676;50.916;13.352;2023-05-08T14:44:46;20.90;29.80
19088;DHT22;9676;50.916;13.352;2023-05-08T14:47:36;20.90;29.90
19088;DHT22;9676;50.916;13.352;2023-05-08T14:50:25;20.90;30.00
19088;DHT22;9676;50.916;13.352;2023-05-08T14:53:15;20.90;30.00
19088;DHT22;9676;50.916;13.352;2023-05-08T14:56:06;20.90;30.00
19088;DHT22;9676;50.916;13.352;2023-05-08T14:58:56;20.90;30.00
19088;DHT22;9676;50.916;13.352;2023-05-08T15:01:45;20.90;30.10
19088;DHT22;9676;50.916;13.352;2023-05-08T15:04:35;21.00;30.10
19088;DHT22;9676;50.916;13.352;2023-05-08T15:07:28;20.90;30.00
19088;DHT22;9676;50.916;13.352;2023-05-08T15:10:17;21.00;30.20
19088;DHT22;9676;50.916;13.352;2023-05-08T15:13:08;21.00;30.20
19088;DHT22;9676;50.916;13.352;2023-05-08T15:15:57;21.00;30.00
19088;DHT22;9676;50.916;13.352;2023-05-08T15:18:47;21.00;30.10
19088;DHT22;9676;50.916;13.352;2023-05-08T15:21:36;21.00;30.10
19088;DHT22;9676;50.916;13.352;2023-05-08T15:24:25;21.00;30.20
19088;DHT22;9676;50.916;13.352;2023-05-08T15:27:14;21.00;30.30
19088;DHT22;9676;50.916;13.352;2023-05-08T15:30:06;21.00;30.30
19088;DHT22;9676;50.916;13.352;2023-05-08T15:32:56;21.00;30.10
19088;DHT22;9676;50.916;13.352;2023-05-08T15:35:46;21.00;30.20
19088;DHT22;9676;50.916;13.352;2023-05-08T15:38:35;21.00;30.20
19088;DHT22;9676;50.916;13.352;2023-05-08T15:41:25;21.00;30.10
19088;DHT22;9676;50.916;13.352;2023-05-08T15:44:14;21.00;30.10
19088;DHT22;9676;50.916;13.352;2023-05-08T15:47:07;20.90;30.00
19088;DHT22;9676;50.916;13.352;2023-05-08T15:49:57;20.90;30.00
19088;DHT22;9676;50.916;13.352;2023-05-08T15:52:46;20.90;30.00
19088;DHT22;9676;50.916;13.352;2023-05-08T15:55:36;20.80;30.00
19088;DHT22;9676;50.916;13.352;2023-05-08T15:58:26;20.80;30.10
19088;DHT22;9676;50.916;13.352;2023-05-08T16:01:15;20.80;30.20
19088;DHT22;9676;50.916;13.352;2023-05-08T16:04:06;20.70;30.10
19088;DHT22;9676;50.916;13.352;2023-05-08T16:06:56;20.70;30.10
19088;DHT22;9676;50.916;13.352;2023-05-08T16:09:46;20.70;30.10
19088;DHT22;9676;50.916;13.352;2023-05-08T16:12:35;20.60;30.10
19088;DHT22;9676;50.916;13.352;2023-05-08T16:15:25;20.60;30.10
19088;DHT22;9676;50.916;13.352;2023-05-08T16:18:14;20.50;30.00
19088;DHT22;9676;50.916;13.352;2023-05-08T16:21:08;20.50;30.10
19088;DHT22;9676;50.916;13.352;2023-05-08T16:23:58;20.50;30.10
19088;DHT22;9676;50.916;13.352;2023-05-08T16:26:47;20.40;30.00
19088;DHT22;9676;50.916;13.352;2023-05-08T16:29:37;20.40;30.00
19088;DHT22;9676;50.916;13.352;2023-05-08T16:32:26;20.40;30.10
19088;DHT22;9676;50.916;13.352;2023-05-08T16:35:16;20.30;30.20
19088;DHT22;9676;50.916;13.352;2023-05-08T16:38:07;20.30;30.30
19088;DHT22;9676;50.916;13.352;2023-05-08T16:41:00;20.20;30.30
19088;DHT22;9676;50.916;13.352;2023-05-08T16:43:53;20.20;30.50
19088;DHT22;9676;50.916;13.352;2023-05-08T16:46:43;20.20;30.60
19088;DHT22;9676;50.916;13.352;2023-05-08T16:49:32;20.10;30.70
19088;DHT22;9676;50.916;13.352;2023-05-08T16:52:21;20.10;30.80
19088;DHT22;9676;50.916;13.352;2023-05-08T16:55:12;20.10;30.90
19088;DHT22;9676;50.916;13.352;2023-05-08T16:58:02;20.10;31.00
19088;DHT22;9676;50.916;13.352;2023-05-08T17:00:54;20.10;31.10
19088;DHT22;9676;50.916;13.352;2023-05-08T17:03:43;20.10;31.20
19088;DHT22;9676;50.916;13.352;2023-05-08T17:06:32;20.10;31.20
19088;DHT22;9676;50.916;13.352;2023-05-08T17:09:22;20.10;31.20
19088;DHT22;9676;50.916;13.352;2023-05-08T17:12:13;20.10;31.30
19088;DHT22;9676;50.916;13.352;2023-05-08T17:15:03;20.10;31.40
19088;DHT22;9676;50.916;13.352;2023-05-08T17:17:53;20.00;31.30
19088;DHT22;9676;50.916;13.352;2023-05-08T17:20:43;20.00;31.30
19088;DHT22;9676;50.916;13.352;2023-05-08T17:23:32;20.00;31.30
19088;DHT22;9676;50.916;13.352;2023-05-08T17:26:21;19.90;31.20
19088;DHT22;9676;50.916;13.352;2023-05-08T17:29:12;19.90;31.30
19088;DHT22;9676;50.916;13.352;2023-05-08T17:32:02;19.80;31.20
19088;DHT22;9676;50.916;13.352;2023-05-08T17:34:51;19.80;31.30
19088;DHT22;9676;50.916;13.352;2023-05-08T17:37:41;19.80;31.40
19088;DHT22;9676;50.916;13.352;2023-05-08T17:40:30;19.70;31.40
19088;DHT22;9676;50.916;13.352;2023-05-08T17:43:20;19.70;31.50
19088;DHT22;9676;50.916;13.352;2023-05-08T17:46:11;19.60;31.50
19088;DHT22;9676;50.916;13.352;2023-05-08T17:49:00;19.60;31.60
19088;DHT22;9676;50.916;13.352;2023-05-08T17:51:49;19.50;31.50
19088;DHT22;9676;50.916;13.352;2023-05-08T17:54:39;19.40;31.50
19088;DHT22;9676;50.916;13.352;2023-05-08T17:57:28;19.40;31.60
19088;DHT22;9676;50.916;13.352;2023-05-08T18:00:18;19.30;31.60
19088;DHT22;9676;50.916;13.352;2023-05-08T18:03:09;19.20;31.70
19088;DHT22;9676;50.916;13.352;2023-05-08T18:05:59;19.20;31.70
19088;DHT22;9676;50.916;13.352;2023-05-08T18:08:48;19.10;31.70
19088;DHT22;9676;50.916;13.352;2023-05-08T18:11:37;19.00;31.70
19088;DHT22;9676;50.916;13.352;2023-05-08T18:14:28;18.90;31.70